createdAt,value
2022-11-10T00:00:25.834Z,36.00
2022-11-10T00:03:53.154Z,33.33
2022-11-10T00:07:14.409Z,37.00
2022-11-10T00:10:57.209Z,34.67
2022-11-10T00:14:36.726Z,36.67
2022-11-10T00:17:58.175Z,35.33
2022-11-10T00:21:20.533Z,31.67
2022-11-10T00:24:42.315Z,36.00
2022-11-10T00:28:03.081Z,36.33
2022-11-10T00:31:24.979Z,35.00
2022-11-10T00:34:46.126Z,35.00
2022-11-10T00:38:08.014Z,31.67
2022-11-10T00:41:29.036Z,38.33
2022-11-10T00:44:50.455Z,34.67
2022-11-10T00:48:11.740Z,33.33
2022-11-10T00:51:33.493Z,35.33
2022-11-10T00:54:54.864Z,35.33
2022-11-10T00:58:16.334Z,34.00
2022-11-10T01:01:37.752Z,33.33
2022-11-10T01:04:59.636Z,36.67
2022-11-10T01:08:21.041Z,34.33
2022-11-10T01:11:42.614Z,35.67
2022-11-10T01:15:04.963Z,34.67
2022-11-10T01:18:26.471Z,34.67
2022-11-10T01:21:51.193Z,36.00
2022-11-10T01:25:12.496Z,35.67
2022-11-10T01:28:34.398Z,35.00
2022-11-10T01:31:55.628Z,34.00
2022-11-10T01:35:16.808Z,37.00
2022-11-10T01:38:40.585Z,34.00
2022-11-10T01:42:01.695Z,35.67
2022-11-10T01:45:23.229Z,34.00
2022-11-10T01:48:56.771Z,34.33
2022-11-10T01:52:18.153Z,35.67
2022-11-10T01:55:42.575Z,34.00
2022-11-10T01:59:07.770Z,35.00
2022-11-10T02:02:50.050Z,35.00
2022-11-10T02:06:12.013Z,35.33
2022-11-10T02:09:33.976Z,34.00
2022-11-10T02:12:55.629Z,34.00
2022-11-10T02:16:16.995Z,33.33
2022-11-10T02:19:42.401Z,36.33
2022-11-10T02:23:35.916Z,35.33
2022-11-10T02:26:58.103Z,35.00
2022-11-10T02:30:21.919Z,34.67
2022-11-10T02:33:45.645Z,35.00
2022-11-10T02:37:06.603Z,35.00
2022-11-10T02:40:28.070Z,35.00
2022-11-10T02:43:49.352Z,34.00
2022-11-10T02:47:10.747Z,35.00
2022-11-10T02:50:31.864Z,35.00
2022-11-10T02:53:53.254Z,36.33
2022-11-10T02:57:14.617Z,35.00
2022-11-10T03:00:36.387Z,34.67
2022-11-10T03:03:57.582Z,34.00
2022-11-10T03:07:19.061Z,31.00
2022-11-10T03:10:40.200Z,34.00
2022-11-10T03:14:02.664Z,34.33
2022-11-10T03:17:23.893Z,33.67
2022-11-10T03:20:47.919Z,30.00
2022-11-10T03:24:09.114Z,34.00
2022-11-10T03:27:30.676Z,32.67
2022-11-10T03:30:51.984Z,30.67
2022-11-10T03:34:13.347Z,34.00
2022-11-10T03:37:34.495Z,35.00
2022-11-10T03:44:36.704Z,31.67
2022-11-10T03:47:58.201Z,34.00
2022-11-10T03:51:19.254Z,32.33
2022-11-10T03:54:40.891Z,34.67
2022-11-10T03:58:03.523Z,30.33
2022-11-10T04:01:25.135Z,33.33
2022-11-10T04:05:04.921Z,31.00
2022-11-10T04:08:45.092Z,32.00
2022-11-10T04:12:25.308Z,33.33
2022-11-10T04:15:46.568Z,34.00
2022-11-10T04:19:07.767Z,33.33
2022-11-10T04:22:47.825Z,34.67
2022-11-10T04:26:29.453Z,36.33
2022-11-10T04:29:51.097Z,31.67
2022-11-10T04:33:12.268Z,33.00
2022-11-10T04:36:35.255Z,33.00
2022-11-10T04:39:56.403Z,35.00
2022-11-10T04:43:18.344Z,31.00
2022-11-10T04:46:40.647Z,34.33
2022-11-10T04:50:02.195Z,35.00
2022-11-10T04:53:25.664Z,32.33
2022-11-10T04:56:47.022Z,36.00
2022-11-10T05:00:09.203Z,32.33
2022-11-10T05:03:31.302Z,32.00
2022-11-10T05:06:54.190Z,32.67
2022-11-10T05:10:15.737Z,34.33
2022-11-10T05:13:37.259Z,34.00
2022-11-10T05:16:58.505Z,35.33
2022-11-10T05:20:21.625Z,35.33
2022-11-10T05:23:44.357Z,35.00
2022-11-10T05:27:05.704Z,35.00
2022-11-10T05:30:26.953Z,35.33
2022-11-10T05:33:48.455Z,34.33
2022-11-10T05:37:10.046Z,33.67
2022-11-10T05:40:32.043Z,33.67
2022-11-10T05:43:53.739Z,35.00
2022-11-10T05:47:15.182Z,32.67
2022-11-10T05:50:36.545Z,34.67
2022-11-10T05:53:57.495Z,35.00
2022-11-10T05:57:19.012Z,34.33
2022-11-10T06:00:40.154Z,36.00
2022-11-10T06:04:01.666Z,36.00
2022-11-10T06:07:22.885Z,32.00
2022-11-10T06:10:44.983Z,31.00
2022-11-10T06:14:06.226Z,33.67
2022-11-10T06:17:27.975Z,31.00
2022-11-10T06:20:49.136Z,31.67
2022-11-10T06:24:11.570Z,31.33
2022-11-10T06:27:32.578Z,33.00
2022-11-10T06:30:58.307Z,30.33
2022-11-10T06:34:20.234Z,33.00
2022-11-10T06:37:41.702Z,33.00
2022-11-10T06:41:03.143Z,32.33
2022-11-10T06:44:24.637Z,31.00
2022-11-10T06:47:45.965Z,32.00
2022-11-10T06:51:07.723Z,31.00
2022-11-10T06:54:28.796Z,32.00
2022-11-10T06:57:50.407Z,30.00
2022-11-10T07:01:12.120Z,31.67
2022-11-10T07:04:33.792Z,33.00
2022-11-10T07:07:55.013Z,29.33
2022-11-10T07:11:16.710Z,32.33
2022-11-10T07:14:37.739Z,32.00
2022-11-10T07:17:59.351Z,31.33
2022-11-10T07:21:21.007Z,32.00
2022-11-10T07:24:42.592Z,32.67
2022-11-10T07:28:06.141Z,29.33
2022-11-10T07:31:27.579Z,30.33
2022-11-10T07:34:49.002Z,31.67
2022-11-10T07:38:12.576Z,27.67
2022-11-10T07:41:33.789Z,32.67
2022-11-10T07:44:56.027Z,29.67
2022-11-10T07:48:17.766Z,33.00
2022-11-10T07:51:39.129Z,30.00
2022-11-10T07:55:00.264Z,30.33
2022-11-10T07:58:21.980Z,31.33
2022-11-10T08:01:43.214Z,32.00
2022-11-10T08:05:04.977Z,33.00
2022-11-10T08:08:25.887Z,25.00
2022-11-10T08:11:47.579Z,30.33
2022-11-10T08:15:09.400Z,30.00
2022-11-10T08:18:35.061Z,30.00
2022-11-10T08:21:56.831Z,33.00
2022-11-10T08:25:18.308Z,29.33
2022-11-10T08:28:39.586Z,35.00
2022-11-10T08:32:01.097Z,34.00
2022-11-10T08:35:23.963Z,32.67
2022-11-10T08:38:45.429Z,32.00
2022-11-10T08:42:06.676Z,31.33
2022-11-10T08:45:28.792Z,31.00
2022-11-10T08:48:49.670Z,32.25
2022-11-10T08:52:11.532Z,32.00
2022-11-10T08:55:33.399Z,30.25
2022-11-10T08:58:55.136Z,30.00
2022-11-10T09:02:16.623Z,30.25
2022-11-10T09:05:37.962Z,30.00
2022-11-10T09:08:59.039Z,30.50
2022-11-10T09:12:20.569Z,30.00
2022-11-10T09:15:43.393Z,30.50
2022-11-10T09:19:04.970Z,30.00
2022-11-10T09:22:26.272Z,28.00
2022-11-10T09:25:53.280Z,26.75
2022-11-10T09:29:14.356Z,30.50
2022-11-10T09:32:36.031Z,29.25
2022-11-10T09:35:59.937Z,28.00
2022-11-10T09:39:21.335Z,31.00
2022-11-10T09:42:43.181Z,29.00
2022-11-10T09:46:25.532Z,29.75
2022-11-10T09:49:50.547Z,29.00
2022-11-10T09:53:16.491Z,30.00
2022-11-10T09:56:38.327Z,24.75
2022-11-10T09:59:59.798Z,27.50
2022-11-10T10:03:24.974Z,29.25
2022-11-10T10:07:14.069Z,28.50
2022-11-10T10:10:40.483Z,27.25
2022-11-10T10:14:28.117Z,28.00
2022-11-10T10:18:06.612Z,28.00
2022-11-10T10:21:35.736Z,29.00
2022-11-10T10:25:00.068Z,28.00
2022-11-10T10:28:38.126Z,28.50
2022-11-10T10:32:01.394Z,27.00
2022-11-10T10:35:23.111Z,29.00
2022-11-10T10:38:46.893Z,29.00
2022-11-10T10:42:33.387Z,28.75
2022-11-10T10:46:28.370Z,28.00
2022-11-10T10:49:51.836Z,27.25
2022-11-10T10:53:25.810Z,28.25
2022-11-10T10:56:47.417Z,27.25
2022-11-10T11:00:22.617Z,27.50
2022-11-10T11:03:45.625Z,27.50
2022-11-10T11:07:20.934Z,26.25
2022-11-10T11:10:46.070Z,26.25
2022-11-10T11:14:24.694Z,24.25
2022-11-10T11:18:00.942Z,25.75
2022-11-10T11:21:37.406Z,26.00
2022-11-10T11:25:21.419Z,28.50
2022-11-10T11:29:21.077Z,28.00
2022-11-10T11:32:44.911Z,27.25
2022-11-10T11:36:39.732Z,24.25
2022-11-10T11:40:15.321Z,26.00
2022-11-10T11:44:05.543Z,25.00
2022-11-10T11:47:59.509Z,24.00
2022-11-10T11:51:35.001Z,24.00
2022-11-10T11:55:19.849Z,24.00
2022-11-10T11:59:02.784Z,23.75
2022-11-10T12:02:39.219Z,24.50
2022-11-10T12:06:09.072Z,23.75
2022-11-10T12:09:55.209Z,23.75
2022-11-10T12:13:49.835Z,22.50
2022-11-10T12:17:23.060Z,22.25
2022-11-10T12:21:16.106Z,24.50
2022-11-10T12:25:05.929Z,21.25
2022-11-10T12:28:40.917Z,23.00
2022-11-10T12:32:08.124Z,20.00
2022-11-10T12:35:34.738Z,22.25
2022-11-10T12:39:12.923Z,20.25
2022-11-10T12:42:34.616Z,20.50
2022-11-10T12:45:59.123Z,20.50
2022-11-10T12:49:36.415Z,20.25
2022-11-10T12:53:03.223Z,19.75
2022-11-10T12:56:54.774Z,18.75
2022-11-10T13:00:28.966Z,18.75
2022-11-10T13:03:56.413Z,18.00
2022-11-10T13:07:24.643Z,18.50
2022-11-10T13:10:53.174Z,18.75
2022-11-10T13:14:40.406Z,18.25
2022-11-10T13:18:01.682Z,17.00
2022-11-10T13:21:50.857Z,16.00
2022-11-10T13:25:37.786Z,15.50
2022-11-10T13:29:01.122Z,15.00
2022-11-10T13:32:33.032Z,18.00
2022-11-10T13:35:56.807Z,19.00
2022-11-10T13:39:20.918Z,18.00
2022-11-10T13:42:47.066Z,15.50
2022-11-10T13:46:08.881Z,17.25
2022-11-10T13:49:55.121Z,19.00
2022-11-10T13:53:46.476Z,18.00
2022-11-10T13:57:15.277Z,17.50
2022-11-10T14:00:36.659Z,15.00
2022-11-10T14:04:02.655Z,13.00
2022-11-10T14:07:23.978Z,16.00
2022-11-10T14:10:56.714Z,15.75
2022-11-10T14:14:25.503Z,13.75
2022-11-10T14:17:52.729Z,15.00
2022-11-10T14:21:26.723Z,14.00
2022-11-10T14:24:54.372Z,13.75
2022-11-10T14:28:30.065Z,14.25
2022-11-10T14:31:51.495Z,15.00
2022-11-10T14:35:23.927Z,15.00
2022-11-10T14:38:45.504Z,14.00
2022-11-10T14:42:06.935Z,14.50
2022-11-10T14:45:28.902Z,16.25
2022-11-10T14:48:56.589Z,14.75
2022-11-10T14:52:18.860Z,13.00
2022-11-10T14:55:43.934Z,12.00
2022-11-10T14:59:07.788Z,13.00
2022-11-10T15:02:29.297Z,14.25
2022-11-10T15:05:51.094Z,14.50
2022-11-10T15:09:14.964Z,13.00
2022-11-10T15:12:41.769Z,12.75
2022-11-10T15:16:25.816Z,11.00
2022-11-10T15:19:47.291Z,12.00
2022-11-10T15:23:22.915Z,14.75
2022-11-10T15:26:44.889Z,13.25
2022-11-10T15:30:24.709Z,16.00
2022-11-10T15:33:49.889Z,18.00
2022-11-10T15:37:30.439Z,17.00
2022-11-10T15:40:57.842Z,12.75
2022-11-10T15:44:24.692Z,16.00
2022-11-10T15:47:46.422Z,17.00
2022-11-10T15:51:12.759Z,14.00
2022-11-10T15:54:36.209Z,16.75
2022-11-10T15:57:57.654Z,16.50
2022-11-10T16:01:19.204Z,15.50
2022-11-10T16:04:40.836Z,12.50
2022-11-10T16:08:02.729Z,14.50
2022-11-10T16:11:24.317Z,15.50
2022-11-10T16:14:48.823Z,16.25
2022-11-10T16:18:15.490Z,16.75
2022-11-10T16:21:37.030Z,16.50
2022-11-10T16:24:58.379Z,18.50
2022-11-10T16:28:24.050Z,19.00
2022-11-10T16:31:45.797Z,18.50
2022-11-10T16:35:12.973Z,17.25
2022-11-10T16:38:33.996Z,16.50
2022-11-10T16:41:55.663Z,17.00
2022-11-10T16:45:19.468Z,18.50
2022-11-10T16:48:44.819Z,17.00
2022-11-10T16:52:14.825Z,19.25
2022-11-10T16:55:36.494Z,19.25
2022-11-10T16:58:57.733Z,21.75
2022-11-10T17:02:29.579Z,18.25
2022-11-10T17:05:51.472Z,21.75
2022-11-10T17:09:19.511Z,21.25
2022-11-10T17:12:40.566Z,18.00
2022-11-10T17:16:13.293Z,15.25
2022-11-10T17:19:34.434Z,17.00
2022-11-10T17:22:56.893Z,18.75
2022-11-10T17:26:19.417Z,20.00
2022-11-10T17:29:40.687Z,20.25
2022-11-10T17:33:05.072Z,25.00
2022-11-10T17:36:27.488Z,21.75
2022-11-10T17:39:48.448Z,21.25
2022-11-10T17:43:13.931Z,20.50
2022-11-10T17:46:35.174Z,24.75
2022-11-10T17:49:57.066Z,25.25
2022-11-10T17:53:24.455Z,22.50
2022-11-10T17:56:46.643Z,29.33
2022-11-10T18:00:09.133Z,26.50
2022-11-10T18:03:30.489Z,27.50
2022-11-10T18:06:52.184Z,26.75
2022-11-10T18:10:15.049Z,25.67
2022-11-10T18:13:40.112Z,29.00
2022-11-10T18:17:02.471Z,27.00
2022-11-10T18:20:24.247Z,28.00
2022-11-10T18:23:46.390Z,28.33
2022-11-10T18:27:07.690Z,30.00
2022-11-10T18:30:34.887Z,31.00
2022-11-10T18:33:58.635Z,29.33
2022-11-10T18:37:22.169Z,32.00
2022-11-10T18:40:43.101Z,29.33
2022-11-10T18:44:06.540Z,31.00
2022-11-10T18:47:27.897Z,28.33
2022-11-10T18:50:50.307Z,28.00
2022-11-10T18:54:13.307Z,31.00
2022-11-10T18:57:35.312Z,30.33
2022-11-10T19:01:04.825Z,30.00
2022-11-10T19:04:27.563Z,27.00
2022-11-10T19:07:49.728Z,27.00
2022-11-10T19:11:15.434Z,30.00
2022-11-10T19:14:37.646Z,33.33
2022-11-10T19:18:02.807Z,33.67
2022-11-10T19:21:28.785Z,32.67
2022-11-10T19:28:35.704Z,32.33
2022-11-10T19:32:00.312Z,24.33
2022-11-10T19:35:25.171Z,28.00
2022-11-10T19:38:48.054Z,25.67
2022-11-10T19:42:09.360Z,26.33
2022-11-10T19:45:31.477Z,28.00
2022-11-10T19:48:54.868Z,28.67
2022-11-10T19:52:17.098Z,24.00
2022-11-10T19:55:39.697Z,27.33
2022-11-10T19:59:02.697Z,29.00
2022-11-10T20:02:24.330Z,31.00
2022-11-10T20:05:47.105Z,27.00
2022-11-10T20:09:08.332Z,31.00
2022-11-10T20:12:30.708Z,29.00
2022-11-10T20:15:52.170Z,31.00
2022-11-10T20:19:16.299Z,26.67
2022-11-10T20:22:37.971Z,30.00
2022-11-10T20:26:11.784Z,28.67
2022-11-10T20:29:33.269Z,28.00
2022-11-10T20:32:55.279Z,27.00
2022-11-10T20:36:24.375Z,27.67
2022-11-10T20:39:46.118Z,27.33
2022-11-10T20:43:07.857Z,34.00
2022-11-10T20:46:53.375Z,30.67
2022-11-10T20:50:17.284Z,33.00
2022-11-10T20:53:41.518Z,27.00
2022-11-10T20:57:02.730Z,31.00
2022-11-10T21:00:24.488Z,29.67
2022-11-10T21:03:45.909Z,31.67
2022-11-10T21:07:07.919Z,31.00
2022-11-10T21:10:29.318Z,29.33
2022-11-10T21:13:51.426Z,31.00
2022-11-10T21:17:12.851Z,30.33
2022-11-10T21:20:35.360Z,29.00
2022-11-10T21:24:00.149Z,30.00
2022-11-10T21:27:21.519Z,28.67
2022-11-10T21:30:42.808Z,33.00
2022-11-10T21:34:04.746Z,31.00
2022-11-10T21:37:26.225Z,31.67
2022-11-10T21:40:47.680Z,30.67
2022-11-10T21:44:08.939Z,31.00
2022-11-10T21:47:30.389Z,31.33
2022-11-10T21:50:51.576Z,31.33
2022-11-10T21:54:12.969Z,30.33
2022-11-10T21:57:34.267Z,36.00
2022-11-10T22:01:04.389Z,33.00
2022-11-10T22:04:26.232Z,34.00
2022-11-10T22:07:47.658Z,32.00
2022-11-10T22:11:32.428Z,32.33
2022-11-10T22:15:12.587Z,31.33
2022-11-10T22:18:41.492Z,31.33
2022-11-10T22:22:04.116Z,33.00
2022-11-10T22:25:25.688Z,33.00
2022-11-10T22:28:47.235Z,30.67
2022-11-10T22:32:08.694Z,32.33
2022-11-10T22:35:45.291Z,33.00
2022-11-10T22:39:06.632Z,32.67
2022-11-10T22:42:46.387Z,30.00
2022-11-10T22:46:07.548Z,32.67
2022-11-10T22:49:29.273Z,33.00
2022-11-10T22:52:50.611Z,30.00
2022-11-10T22:56:19.882Z,33.67
2022-11-10T22:59:41.942Z,33.67
2022-11-10T23:03:03.765Z,30.00
2022-11-10T23:06:24.820Z,32.67
2022-11-10T23:09:46.245Z,31.67
2022-11-10T23:13:07.576Z,26.33
2022-11-10T23:16:32.963Z,34.00
2022-11-10T23:19:54.022Z,33.67
2022-11-10T23:23:15.737Z,33.00
2022-11-10T23:26:36.985Z,33.00
2022-11-10T23:29:58.337Z,31.33
2022-11-10T23:33:19.688Z,28.33
2022-11-10T23:36:42.233Z,33.00
2022-11-10T23:40:03.601Z,33.00
2022-11-10T23:43:25.937Z,30.67
2022-11-10T23:46:47.748Z,33.67
2022-11-10T23:50:09.850Z,32.00
2022-11-10T23:53:31.414Z,30.00
2022-11-10T23:56:53.272Z,31.33
